Time;durP1;ratioP1;P1;durP2;ratioP2;P2;SDS_P1;SDS_P2;PMS_P1;PMS_P2;Temp;Humidity;BMP_temperature;BMP_pressure;BME280_temperature;BME280_humidity;BME280_pressure;Samples;Min_cycle;Max_cycle;Signal;HPM_P1;HPM_P2
2022/04/07 00:00:16;;;;;;;;;1.50;0.00;;;;;19.72;39.30;99527.16;4976059;28;48546;-58
2022/04/07 00:02:41;;;;;;;;;0.00;0.00;;;;;19.71;39.18;99520.22;4976313;28;45406;-57
2022/04/07 00:05:07;;;;;;;;;0.00;0.00;;;;;19.73;39.25;99510.44;4976515;28;45388;-60
2022/04/07 00:07:33;;;;;;;;;0.00;0.00;;;;;19.71;39.49;99523.69;4976570;28;45450;-57
2022/04/07 00:09:58;;;;;;;;;0.00;0.00;;;;;19.71;39.42;99507.91;4976378;28;45493;-57
2022/04/07 00:12:23;;;;;;;;;0.50;0.50;;;;;19.71;39.52;99497.38;4976323;28;45415;-58
2022/04/07 00:14:49;;;;;;;;;0.75;0.75;;;;;19.71;39.35;99496.56;4976302;28;45298;-56
2022/04/07 00:17:14;;;;;;;;;0.00;0.00;;;;;19.70;39.36;99492.25;4976457;28;45344;-58
2022/04/07 00:19:39;;;;;;;;;0.00;0.00;;;;;19.70;39.29;99479.13;4975691;28;46525;-56
2022/04/07 00:22:05;;;;;;;;;0.00;0.00;;;;;19.68;39.57;99487.09;4975982;28;45329;-56
2022/04/07 00:24:30;;;;;;;;;1.00;0.00;;;;;19.68;39.27;99487.09;4976197;28;45287;-57
2022/04/07 00:26:56;;;;;;;;;0.00;0.00;;;;;19.69;39.17;99488.78;4976624;28;45233;-58
2022/04/07 00:29:21;;;;;;;;;0.00;0.00;;;;;19.69;39.43;99482.69;4975824;28;46235;-55
2022/04/07 00:31:53;;;;;;;;;2.00;0.00;;;;;19.69;39.61;99493.19;4974794;28;45280;-57
2022/04/07 00:34:19;;;;;;;;;0.00;0.00;;;;;19.68;39.38;99484.47;4976095;28;45280;-58
2022/04/07 00:36:44;;;;;;;;;0.00;0.00;;;;;19.67;39.42;99474.94;4976237;28;45349;-57
2022/04/07 00:39:09;;;;;;;;;1.00;1.00;;;;;19.67;39.38;99474.94;4975710;28;45375;-57
2022/04/07 00:41:37;;;;;;;;;0.00;0.00;;;;;19.67;39.67;99474.94;4975566;28;49688;-58
2022/04/07 00:44:02;;;;;;;;;0.00;0.00;;;;;19.67;39.66;99463.56;4976052;28;45304;-62
2022/04/07 00:46:28;;;;;;;;;0.00;0.00;;;;;19.65;39.61;99453.16;4976464;28;45233;-56
2022/04/07 00:48:53;;;;;;;;;1.50;0.00;;;;;19.66;39.28;99459.25;4975872;28;46056;-57
2022/04/07 00:51:19;;;;;;;;;0.00;0.00;;;;;19.66;39.58;99444.34;4975889;28;45471;-57
2022/04/07 00:53:45;;;;;;;;;2.50;0.75;;;;;19.65;39.25;99426.88;4975866;28;45313;-56
2022/04/07 00:56:11;;;;;;;;;0.00;0.00;;;;;19.64;39.62;99433.09;4975772;28;45573;-57
2022/04/07 00:58:37;;;;;;;;;0.00;0.00;;;;;19.63;39.47;99420.91;4975026;28;45413;-58
2022/04/07 01:01:02;;;;;;;;;2.00;0.00;;;;;19.62;39.31;99409.53;4975550;28;45373;-56
2022/04/07 01:03:28;;;;;;;;;1.50;1.00;;;;;19.62;39.60;99411.34;4975883;28;45432;-57
2022/04/07 01:05:53;;;;;;;;;0.75;0.75;;;;;19.62;39.68;99399.00;4975450;28;46669;-57
2022/04/07 01:08:19;;;;;;;;;1.00;1.00;;;;;19.62;39.38;99399.00;4975437;28;45495;-55
2022/04/07 01:10:45;;;;;;;;;0.25;0.00;;;;;19.62;39.04;99387.69;4975415;28;45445;-56
2022/04/07 01:13:11;;;;;;;;;2.00;0.00;;;;;19.61;39.25;99371.09;4975599;28;45330;-58
2022/04/07 01:15:37;;;;;;;;;1.75;0.00;;;;;19.60;39.03;99365.91;4975640;28;45387;-57
2022/04/07 01:18:03;;;;;;;;;0.25;0.25;;;;;19.61;39.65;99375.47;4975160;28;46199;-56
2022/04/07 01:20:29;;;;;;;;;0.00;0.00;;;;;19.61;39.47;99370.22;4975569;28;45256;-58
2022/04/07 01:22:56;;;;;;;;;1.50;0.00;;;;;19.59;39.32;99361.63;4975523;28;45317;-56
2022/04/07 01:25:24;;;;;;;;;0.00;0.00;;;;;19.61;39.01;99360.56;4975625;28;45527;-57
2022/04/07 01:27:49;;;;;;;;;0.00;0.00;;;;;19.60;39.41;99360.66;4975412;28;45415;-57
2022/04/07 01:30:16;;;;;;;;;0.00;0.00;;;;;19.58;39.19;99355.53;4975250;28;45311;-55
2022/04/07 01:32:57;;;;;;;;;0.50;0.50;;;;;19.59;39.63;99369.50;4975335;28;45320;-56
2022/04/07 01:35:23;;;;;;;;;1.00;1.00;;;;;19.58;39.16;99355.53;4975475;28;45854;-55
2022/04/07 01:37:52;;;;;;;;;0.50;0.00;;;;;19.60;39.36;99355.41;4975034;28;45410;-57
2022/04/07 01:40:21;;;;;;;;;0.00;0.00;;;;;19.59;39.56;99343.22;4974970;28;45754;-56
2022/04/07 01:42:49;;;;;;;;;0.00;0.00;;;;;19.58;39.66;99352.06;4975294;28;45489;-57
2022/04/07 01:45:14;;;;;;;;;1.00;1.00;;;;;19.58;39.32;99354.69;4975340;28;45503;-56
2022/04/07 01:47:42;;;;;;;;;0.00;0.00;;;;;19.57;39.63;99350.38;4974941;28;46212;-56
2022/04/07 01:50:10;;;;;;;;;0.00;0.00;;;;;19.56;39.71;99340.84;4973861;28;45880;-58
2022/04/07 01:52:38;;;;;;;;;0.00;0.00;;;;;19.56;39.59;99346.09;4975135;28;45504;-56
2022/04/07 01:55:05;;;;;;;;;0.00;0.00;;;;;19.58;39.80;99344.16;4974064;28;45432;-55
2022/04/07 01:57:32;;;;;;;;;0.00;0.00;;;;;19.56;39.10;99330.34;4975046;28;46356;-56
2022/04/07 01:59:58;;;;;;;;;0.75;0.75;;;;;19.57;39.59;99337.22;4974786;28;45243;-60
2022/04/07 02:02:24;;;;;;;;;1.00;1.00;;;;;19.55;39.67;99334.72;4974950;28;45325;-58
2022/04/07 02:04:57;;;;;;;;;1.25;0.00;;;;;19.56;39.32;99340.84;4975131;28;45347;-58
2022/04/07 02:07:27;;;;;;;;;0.00;0.00;;;;;19.56;39.68;99340.84;4974502;28;46511;-58
2022/04/07 02:09:52;;;;;;;;;0.75;0.75;;;;;19.56;39.42;99330.34;4974516;28;45391;-58
2022/04/07 02:12:20;;;;;;;;;1.25;0.00;;;;;19.56;39.36;99340.84;4974904;28;45330;-56
2022/04/07 02:14:46;;;;;;;;;0.50;0.25;;;;;19.56;39.72;99327.69;4975121;28;45388;-57
2022/04/07 02:17:11;;;;;;;;;0.25;0.00;;;;;19.55;39.65;99326.03;4974638;28;46221;-58
2022/04/07 02:19:37;;;;;;;;;0.00;0.00;;;;;19.56;39.91;99317.19;4974318;28;45335;-58
2022/04/07 02:22:02;;;;;;;;;0.25;0.25;;;;;19.54;39.71;99314.66;4973717;28;45498;-57
2022/04/07 02:24:28;;;;;;;;;0.75;0.50;;;;;19.53;39.29;99307.72;4974962;28;45558;-59
2022/04/07 02:26:53;;;;;;;;;1.00;1.00;;;;;19.53;39.72;99301.66;4974438;28;47223;-57
2022/04/07 02:29:19;;;;;;;;;1.25;0.00;;;;;19.53;39.22;99293.75;4974640;28;45339;-57
2022/04/07 02:31:44;;;;;;;;;0.00;0.00;;;;;19.52;39.39;99289.47;4974295;28;51490;-58
2022/04/07 02:34:09;;;;;;;;;0.00;0.00;;;;;19.53;39.39;99285.88;4973227;28;45296;-58
2022/04/07 02:36:35;;;;;;;;;0.00;0.00;;;;;19.52;39.79;99273.69;4974735;28;45355;-57
2022/04/07 02:39:00;;;;;;;;;1.00;0.00;;;;;19.53;39.71;99267.47;4974321;28;45340;-57
2022/04/07 02:41:26;;;;;;;;;0.00;0.00;;;;;19.53;39.46;99257.78;4974543;28;45450;-59
2022/04/07 02:43:52;;;;;;;;;0.00;0.00;;;;;19.52;39.76;99261.38;4974616;28;45471;-57
2022/04/07 02:46:17;;;;;;;;;0.00;0.00;;;;;19.52;39.59;99248.25;4974265;28;45405;-57
2022/04/07 02:48:42;;;;;;;;;0.00;0.00;;;;;19.52;39.48;99240.34;4974290;28;45379;-57
2022/04/07 02:51:08;;;;;;;;;0.50;0.25;;;;;19.52;39.47;99237.72;4974301;28;45433;-56
2022/04/07 02:53:33;;;;;;;;;0.00;0.00;;;;;19.52;39.88;99231.66;4974782;28;45608;-57
2022/04/07 02:55:58;;;;;;;;;1.00;1.00;;;;;19.51;39.71;99228.19;4973815;28;55124;-58
2022/04/07 02:58:24;;;;;;;;;1.00;1.00;;;;;19.51;39.77;99214.22;4974047;28;45421;-59
2022/04/07 03:00:49;;;;;;;;;0.00;0.00;;;;;19.51;39.66;99206.31;4973900;28;48372;-59
2022/04/07 03:03:15;;;;;;;;;0.00;0.00;;;;;19.51;40.02;99206.31;4974270;28;45470;-57
2022/04/07 03:05:40;;;;;;;;;0.25;0.25;;;;;19.50;39.47;99204.66;4972695;28;48003;-58
2022/04/07 03:08:06;;;;;;;;;1.50;0.00;;;;;19.51;39.77;99195.81;4974378;28;45347;-58
2022/04/07 03:10:31;;;;;;;;;0.00;0.00;;;;;19.50;39.98;99186.25;4974112;28;45224;-57
2022/04/07 03:12:57;;;;;;;;;0.50;0.25;;;;;19.50;39.51;99188.88;4974091;28;45559;-57
2022/04/07 03:15:22;;;;;;;;;0.00;0.00;;;;;19.50;39.55;99183.63;4973890;28;46241;-57
2022/04/07 03:17:48;;;;;;;;;1.00;0.00;;;;;19.49;39.67;99177.53;4973708;28;45805;-56
2022/04/07 03:20:13;;;;;;;;;0.00;0.00;;;;;19.49;39.61;99168.81;4973275;28;45383;-57
2022/04/07 03:22:38;;;;;;;;;0.75;0.00;;;;;19.49;39.61;99168.81;4977149;28;45287;-55
2022/04/07 03:25:04;;;;;;;;;0.00;0.00;;;;;19.47;39.95;99154.00;4976997;28;46013;-58
2022/04/07 03:27:30;;;;;;;;;0.00;0.00;;;;;19.48;39.91;99144.34;4976870;28;45386;-57
2022/04/07 03:29:55;;;;;;;;;0.00;0.00;;;;;19.49;40.01;99139.91;4976843;28;45408;-57
2022/04/07 03:32:20;;;;;;;;;1.00;1.00;;;;;19.47;39.89;99129.53;4975555;28;45494;-57
2022/04/07 03:34:46;;;;;;;;;0.00;0.00;;;;;19.47;40.05;99113.75;4976670;28;46116;-58
2022/04/07 03:37:11;;;;;;;;;0.00;0.00;;;;;19.46;39.98;99099.78;4976706;28;45341;-56
2022/04/07 03:39:36;;;;;;;;;0.00;0.00;;;;;19.47;39.96;99105.88;4976994;28;45884;-56
2022/04/07 03:42:02;;;;;;;;;0.50;0.50;;;;;19.47;39.57;99090.13;4976976;28;45335;-55
2022/04/07 03:44:27;;;;;;;;;1.00;1.00;;;;;19.47;39.77;99076.97;4976447;28;45664;-55
2022/04/07 03:46:53;;;;;;;;;0.00;0.00;;;;;19.46;39.82;99068.25;4976504;28;45367;-58
2022/04/07 03:49:20;;;;;;;;;0.00;0.00;;;;;19.46;40.09;99063.00;4976430;28;45290;-56
2022/04/07 03:51:45;;;;;;;;;0.25;0.25;;;;;19.45;40.04;99042.97;4976722;28;45236;-60
2022/04/07 03:54:10;;;;;;;;;0.00;0.00;;;;;19.46;40.18;99034.09;4976542;28;45263;-56
2022/04/07 03:56:37;;;;;;;;;0.00;0.00;;;;;19.46;40.15;99026.22;4976866;28;45336;-56
2022/04/07 03:59:02;;;;;;;;;0.25;0.25;;;;;19.46;39.65;99022.75;4976607;28;45214;-56
2022/04/07 04:01:28;;;;;;;;;0.00;0.00;;;;;19.45;39.86;99019.31;4975426;28;45199;-54
2022/04/07 04:03:53;;;;;;;;;0.00;0.00;;;;;19.45;40.33;99021.09;4976168;28;45318;-55
2022/04/07 04:06:19;;;;;;;;;0.00;0.00;;;;;19.45;40.16;99014.06;4976348;28;45219;-56
2022/04/07 04:08:45;;;;;;;;;0.00;0.00;;;;;19.45;40.26;99014.06;4976495;28;45376;-55
2022/04/07 04:11:12;;;;;;;;;0.50;0.50;;;;;19.45;40.32;99010.56;4975406;28;45649;-55
2022/04/07 04:13:38;;;;;;;;;0.00;0.00;;;;;19.44;40.23;99001.88;4976556;28;46387;-55
2022/04/07 04:16:04;;;;;;;;;2.00;1.00;;;;;19.44;40.24;98999.25;4976186;28;45393;-57
2022/04/07 04:18:29;;;;;;;;;0.00;0.00;;;;;19.43;40.25;98992.31;4976223;28;45394;-56
2022/04/07 04:20:54;;;;;;;;;0.25;0.00;;;;;19.43;40.28;98984.44;4975132;28;45392;-57
2022/04/07 04:23:19;;;;;;;;;0.00;0.00;;;;;19.44;40.30;98990.50;4976230;28;45389;-56
2022/04/07 04:25:46;;;;;;;;;1.00;1.00;;;;;19.44;39.97;99001.03;4975855;28;47743;-57
2022/04/07 04:28:12;;;;;;;;;1.00;1.00;;;;;19.43;40.01;98984.44;4976200;28;45335;-59
2022/04/07 04:30:37;;;;;;;;;1.75;0.50;;;;;19.43;40.28;98979.19;4976404;28;45196;-56
2022/04/07 04:33:02;;;;;;;;;2.00;0.00;;;;;19.43;40.06;98976.56;4974575;28;46217;-57
2022/04/07 04:35:28;;;;;;;;;0.00;0.00;;;;;19.42;40.13;98977.50;4975998;28;45220;-57
2022/04/07 04:37:53;;;;;;;;;0.00;0.00;;;;;19.43;40.08;98984.44;4975876;28;45248;-57
2022/04/07 04:40:18;;;;;;;;;0.00;0.00;;;;;19.43;40.11;98960.78;4976121;28;45601;-57
2022/04/07 04:42:44;;;;;;;;;0.00;0.00;;;;;19.43;40.05;98960.78;4975794;28;45900;-57
2022/04/07 04:45:09;;;;;;;;;0.00;0.00;;;;;19.42;40.21;98967.00;4975018;28;45239;-58
2022/04/07 04:47:35;;;;;;;;;1.00;1.00;;;;;19.43;40.20;98963.41;4976030;28;45660;-57
2022/04/07 04:50:04;;;;;;;;;1.00;0.50;;;;;19.43;40.22;98952.06;4976041;28;45636;-57
2022/04/07 04:52:29;;;;;;;;;0.00;0.00;;;;;19.40;40.51;98947.06;4975512;28;46108;-58
2022/04/07 04:54:54;;;;;;;;;0.00;0.00;;;;;19.42;39.99;98951.25;4975745;28;45442;-56
2022/04/07 04:57:20;;;;;;;;;0.50;0.00;;;;;19.41;40.23;98949.56;4975804;28;45340;-58
2022/04/07 04:59:45;;;;;;;;;0.50;0.50;;;;;19.42;40.52;98945.13;4975903;28;45220;-59
2022/04/07 05:02:10;;;;;;;;;1.00;1.00;;;;;19.42;40.33;98940.72;4975426;28;53993;-58
2022/04/07 05:04:36;;;;;;;;;0.25;0.25;;;;;19.41;40.50;98943.47;4975671;28;45239;-59
2022/04/07 05:07:02;;;;;;;;;0.00;0.00;;;;;19.42;40.29;98938.09;4975597;28;45392;-57
2022/04/07 05:09:28;;;;;;;;;0.00;0.00;;;;;19.42;40.60;98930.22;4975789;28;45579;-56
2022/04/07 05:11:53;;;;;;;;;0.50;0.50;;;;;19.40;40.55;98934.75;4975535;28;46260;-56
2022/04/07 05:14:18;;;;;;;;;0.25;0.25;;;;;19.42;40.33;98934.63;4975381;28;45201;-60
2022/04/07 05:16:43;;;;;;;;;1.00;0.00;;;;;19.41;40.76;98933.81;4975469;28;45325;-53
2022/04/07 05:19:09;;;;;;;;;2.00;1.00;;;;;19.39;40.69;98919.13;4975589;28;45544;-55
2022/04/07 05:21:34;;;;;;;;;0.75;0.50;;;;;19.35;41.13;98928.22;4974844;28;46105;-55
2022/04/07 05:24:00;;;;;;;;;0.00;0.00;;;;;19.28;41.01;98918.22;4975033;28;45414;-54
2022/04/07 05:26:25;;;;;;;;;1.00;1.00;;;;;19.24;41.59;98906.28;4975377;28;45496;-57
2022/04/07 05:28:50;;;;;;;;;1.50;1.00;;;;;19.19;41.42;98918.09;4975314;28;45318;-56
2022/04/07 05:31:16;;;;;;;;;1.25;1.25;;;;;19.16;41.88;98891.13;4974786;28;46104;-52
2022/04/07 05:33:41;;;;;;;;;3.00;1.00;;;;;19.12;41.92;98892.34;4975240;28;45326;-54
2022/04/07 05:36:06;;;;;;;;;1.75;1.00;;;;;19.08;41.67;98887.44;4975187;28;45481;-56
2022/04/07 05:38:32;;;;;;;;;1.00;1.00;;;;;19.04;41.85;98878.16;4975161;28;45546;-55
2022/04/07 05:40:57;;;;;;;;;2.50;1.00;;;;;19.02;42.25;98896.63;4973473;28;48236;-59
2022/04/07 05:43:23;;;;;;;;;1.50;1.00;;;;;18.99;42.49;98876.72;4974130;28;45386;-56
2022/04/07 05:45:50;;;;;;;;;1.00;1.00;;;;;18.98;42.28;98869.81;4974915;28;45428;-58
2022/04/07 05:48:16;;;;;;;;;2.00;1.00;;;;;18.96;42.56;98874.34;4975339;28;45524;-52
2022/04/07 05:50:41;;;;;;;;;0.00;0.00;;;;;18.95;42.44;98871.84;4975280;28;45209;-53
2022/04/07 05:53:07;;;;;;;;;2.00;0.00;;;;;18.93;42.67;98871.09;4974715;28;45342;-54
2022/04/07 05:55:35;;;;;;;;;0.00;0.00;;;;;18.94;42.66;98873.66;4975107;28;45382;-56
2022/04/07 05:58:10;;;;;;;;;1.00;0.75;;;;;18.96;42.23;98876.13;4975327;28;45280;-54
2022/04/07 06:00:39;;;;;;;;;1.75;0.75;;;;;18.99;42.22;98868.84;4974788;28;46308;-58
2022/04/07 06:03:05;;;;;;;;;0.00;0.00;;;;;19.03;42.33;98868.59;4974835;28;45337;-58
2022/04/07 06:05:31;;;;;;;;;1.00;1.00;;;;;19.05;42.19;98864.91;4974961;28;45790;-58
2022/04/07 06:08:00;;;;;;;;;1.00;0.00;;;;;19.07;42.06;98860.34;4975043;28;45427;-59
2022/04/07 06:10:26;;;;;;;;;0.50;0.50;;;;;19.10;41.91;98860.13;4974573;28;46200;-59
2022/04/07 06:12:51;;;;;;;;;1.00;0.75;;;;;19.13;41.80;98872.97;4974805;28;45308;-57
2022/04/07 06:15:17;;;;;;;;;1.75;1.00;;;;;19.13;41.99;98870.34;4974917;28;45351;-55
2022/04/07 06:17:47;;;;;;;;;0.00;0.00;;;;;19.15;42.10;98865.81;4973741;28;45499;-59
2022/04/07 06:20:13;;;;;;;;;0.00;0.00;;;;;19.17;41.69;98868.34;4974764;28;47461;-57
2022/04/07 06:22:40;;;;;;;;;1.50;0.00;;;;;19.18;41.77;98861.28;4974533;28;45243;-57
2022/04/07 06:25:06;;;;;;;;;1.00;0.00;;;;;19.19;41.73;98869.03;4973403;28;45391;-58
2022/04/07 06:27:45;;;;;;;;;0.00;0.00;;;;;19.20;41.88;98862.00;4974805;28;45387;-60
2022/04/07 06:30:16;;;;;;;;;0.25;0.00;;;;;19.21;41.94;98858.41;4974562;28;45285;-59
2022/04/07 06:32:43;;;;;;;;;1.00;1.00;;;;;19.21;41.71;98853.97;4974674;28;45906;-59
2022/04/07 06:35:09;;;;;;;;;0.50;0.50;;;;;19.24;41.86;98861.63;4974579;28;45358;-60
2022/04/07 06:37:53;;;;;;;;;3.50;1.00;;;;;19.24;41.79;98860.78;4974699;28;45659;-56
2022/04/07 06:40:20;;;;;;;;;1.00;1.00;;;;;19.24;41.60;98845.88;4974073;28;46304;-57
2022/04/07 06:42:47;;;;;;;;;1.00;1.00;;;;;19.24;41.50;98843.25;4974626;28;45710;-59
2022/04/07 06:45:12;;;;;;;;;2.00;0.50;;;;;19.24;41.63;98837.13;4974696;28;45432;-57
2022/04/07 06:47:42;;;;;;;;;0.75;0.75;;;;;19.26;41.76;98851.84;4973301;28;45280;-59
2022/04/07 06:50:13;;;;;;;;;0.50;0.00;;;;;19.26;41.46;98830.81;4974177;27;46390;-57
2022/04/07 06:52:40;;;;;;;;;1.00;1.00;;;;;19.27;41.76;98834.25;4974217;28;45696;-58
2022/04/07 06:55:07;;;;;;;;;3.25;2.00;;;;;19.27;41.42;98834.25;4974378;28;45387;-58
2022/04/07 06:57:56;;;;;;;;;1.25;1.25;;;;;19.27;41.93;98837.75;4973174;28;45397;-57
2022/04/07 07:00:24;;;;;;;;;0.00;0.00;;;;;19.27;41.71;98826.38;4974057;28;45265;-57
2022/04/07 07:02:57;;;;;;;;;0.00;0.00;;;;;19.27;41.62;98819.34;4973945;28;45319;-56
2022/04/07 07:05:24;;;;;;;;;0.00;0.00;;;;;19.28;41.62;98838.56;4974144;28;45344;-57
2022/04/07 07:07:50;;;;;;;;;3.00;1.75;;;;;19.27;41.73;98837.75;4973227;28;45377;-58
2022/04/07 07:10:29;;;;;;;;;2.75;1.00;;;;;19.28;41.65;98828.06;4972887;28;45507;-58
2022/04/07 07:12:54;;;;;;;;;0.25;0.25;;;;;19.28;41.55;98818.41;4973996;28;45523;-58
2022/04/07 07:15:23;;;;;;;;;3.25;2.00;;;;;19.27;41.45;98829.88;4973864;28;45272;-57
2022/04/07 07:17:51;;;;;;;;;1.00;1.00;;;;;19.29;41.42;98814.78;4974289;28;45631;-58
2022/04/07 07:20:19;;;;;;;;;0.50;0.00;;;;;19.29;41.56;98827.09;4973820;28;47081;-57
2022/04/07 07:22:44;;;;;;;;;1.75;1.00;;;;;19.30;41.82;98810.38;4973713;28;45762;-59
2022/04/07 07:25:11;;;;;;;;;0.25;0.25;;;;;19.30;41.35;98813.00;4973979;28;45382;-55
2022/04/07 07:27:41;;;;;;;;;1.75;0.75;;;;;19.31;41.81;98817.31;4973989;28;45363;-57
2022/04/07 07:30:09;;;;;;;;;2.00;1.00;;;;;19.31;42.01;98817.31;4973354;28;46052;-57
2022/04/07 07:32:36;;;;;;;;;1.00;1.00;;;;;19.32;41.69;98829.47;4973461;28;45323;-58
2022/04/07 07:35:01;;;;;;;;;2.00;1.00;;;;;19.33;41.75;98819.78;4973722;28;45232;-58
2022/04/07 07:37:27;;;;;;;;;1.00;1.00;;;;;19.32;41.56;98824.22;4973740;28;45306;-56
2022/04/07 07:39:52;;;;;;;;;0.50;0.50;;;;;19.32;41.73;98821.59;4973361;28;45961;-57
2022/04/07 07:42:17;;;;;;;;;1.00;1.00;;;;;19.32;41.73;98803.22;4973633;28;45346;-56
2022/04/07 07:44:43;;;;;;;;;0.75;0.75;;;;;19.33;41.93;98796.16;4973504;28;45271;-60
2022/04/07 07:47:08;;;;;;;;;0.50;0.50;;;;;19.34;42.00;98811.81;4972315;28;45392;-55
2022/04/07 07:49:33;;;;;;;;;0.00;0.00;;;;;19.34;41.86;98790.78;4973194;28;45232;-59
2022/04/07 07:51:59;;;;;;;;;2.25;0.00;;;;;19.35;42.20;98781.94;4973226;28;45222;-57
2022/04/07 07:54:24;;;;;;;;;1.00;1.00;;;;;19.34;42.21;98788.16;4973529;28;45335;-56
2022/04/07 07:56:49;;;;;;;;;1.00;1.00;;;;;19.35;42.07;98797.69;4972170;28;48383;-58
2022/04/07 07:59:15;;;;;;;;;0.00;0.00;;;;;19.35;41.87;98776.69;4971418;28;59307;-57
2022/04/07 08:01:43;;;;;;;;;1.00;0.25;;;;;19.36;42.17;98783.59;4972965;28;45752;-60
2022/04/07 08:04:08;;;;;;;;;1.00;1.00;;;;;19.35;41.96;98776.69;4973255;28;45335;-56
2022/04/07 08:06:34;;;;;;;;;1.50;0.00;;;;;19.38;42.04;98780.88;4974723;28;45508;-60
2022/04/07 08:08:59;;;;;;;;;0.75;0.75;;;;;19.39;42.06;98787.78;4975988;28;46760;-59
2022/04/07 08:11:25;;;;;;;;;1.00;1.00;;;;;19.38;41.93;98792.19;4976141;28;45321;-58
2022/04/07 08:13:50;;;;;;;;;0.25;0.25;;;;;19.38;41.84;98781.69;4976345;28;45659;-58
2022/04/07 08:16:16;;;;;;;;;2.00;0.25;;;;;19.39;41.88;98782.53;4975025;28;45580;-60
2022/04/07 08:18:41;;;;;;;;;0.50;0.50;;;;;19.38;42.39;98786.13;4975645;28;46123;-58
2022/04/07 08:21:06;;;;;;;;;0.00;0.00;;;;;19.36;42.06;98778.34;4975796;28;45235;-58
2022/04/07 08:23:31;;;;;;;;;1.75;1.75;;;;;19.36;42.40;98775.72;4975951;28;45297;-58
2022/04/07 08:25:58;;;;;;;;;0.50;0.00;;;;;19.36;42.52;98788.84;4976231;28;45370;-60
2022/04/07 08:28:23;;;;;;;;;0.50;0.00;;;;;19.36;42.17;98770.47;4975371;28;52541;-59
2022/04/07 08:30:49;;;;;;;;;1.00;1.00;;;;;19.36;42.47;98783.59;4976076;28;45335;-60
2022/04/07 08:33:14;;;;;;;;;0.75;0.00;;;;;19.33;42.78;98778.63;4975881;28;45324;-60
2022/04/07 08:35:39;;;;;;;;;1.00;0.00;;;;;19.34;42.32;98772.41;4975936;28;45436;-58
2022/04/07 08:38:05;;;;;;;;;0.00;0.00;;;;;19.35;42.36;98771.41;4975542;28;46038;-58
2022/04/07 08:40:30;;;;;;;;;0.00;0.00;;;;;19.35;42.34;98760.91;4975585;28;45429;-58
2022/04/07 08:42:57;;;;;;;;;0.00;0.00;;;;;19.34;42.66;98775.03;4974404;28;45246;-59
2022/04/07 08:45:22;;;;;;;;;0.00;0.00;;;;;19.35;42.84;98767.97;4975035;28;45322;-61
2022/04/07 08:47:50;;;;;;;;;0.00;0.00;;;;;19.36;42.75;98772.28;4975538;28;46352;-59
2022/04/07 08:50:21;;;;;;;;;0.00;0.00;;;;;19.35;42.75;98773.22;4974395;28;45395;-59
2022/04/07 08:52:46;;;;;;;;;0.00;0.00;;;;;19.34;43.24;98768.94;4975588;28;45293;-57
2022/04/07 08:55:12;;;;;;;;;0.00;0.00;;;;;19.34;42.58;98759.28;4975734;28;45469;-56
2022/04/07 08:57:39;;;;;;;;;0.00;0.00;;;;;19.35;43.16;98771.41;4975338;28;45430;-59
2022/04/07 09:00:06;;;;;;;;;0.00;0.00;;;;;19.35;43.00;98781.09;4975358;28;45744;-57
2022/04/07 09:02:32;;;;;;;;;0.00;0.00;;;;;19.36;43.03;98777.53;4975523;28;45399;-58
2022/04/07 09:05:01;;;;;;;;;0.00;0.00;;;;;19.36;42.80;98767.00;4975612;28;45341;-61
2022/04/07 09:07:33;;;;;;;;;0.00;0.00;;;;;19.36;42.64;98782.78;4975151;28;46561;-59
2022/04/07 09:10:01;;;;;;;;;0.00;0.00;;;;;19.36;43.09;98777.53;4975316;28;45837;-58
2022/04/07 09:12:27;;;;;;;;;1.00;0.00;;;;;19.36;42.67;98759.13;4975319;28;45380;-56
2022/04/07 09:14:58;;;;;;;;;0.00;0.00;;;;;19.36;42.77;98767.00;4975711;28;45536;-58
2022/04/07 09:17:24;;;;;;;;;0.00;0.00;;;;;19.37;43.02;98756.38;4974482;28;45657;-58
2022/04/07 09:19:50;;;;;;;;;0.00;0.00;;;;;19.36;42.66;98761.75;4989993;28;45837;-58
2022/04/07 09:22:15;;;;;;;;;1.00;0.00;;;;;19.36;43.21;98757.31;4975105;28;45386;-59
2022/04/07 09:24:42;;;;;;;;;0.50;0.50;;;;;19.36;42.86;98775.72;4975440;28;45635;-60
2022/04/07 09:27:09;;;;;;;;;0.00;0.00;;;;;19.37;43.28;98774.75;4974943;28;46428;-59
2022/04/07 09:29:46;;;;;;;;;0.00;0.00;;;;;19.39;42.91;98769.41;4975238;28;45822;-60
2022/04/07 09:32:29;;;;;;;;;0.00;0.00;;;;;19.38;43.09;98786.94;4975256;28;45377;-61
2022/04/07 09:34:59;;;;;;;;;0.00;0.00;;;;;19.39;43.13;98770.22;4975561;28;45324;-60
2022/04/07 09:37:28;;;;;;;;;0.00;0.00;;;;;19.39;42.89;98769.41;4975277;28;46610;-59
2022/04/07 09:40:04;;;;;;;;;0.00;0.00;;;;;19.39;42.84;98767.59;4975143;28;45276;-60
2022/04/07 09:42:29;;;;;;;;;0.00;0.00;;;;;19.38;42.73;98773.81;4975107;28;45426;-60
2022/04/07 09:45:01;;;;;;;;;0.00;0.00;;;;;19.38;42.89;98791.38;4975416;28;45570;-61
2022/04/07 09:47:43;;;;;;;;;0.00;0.00;;;;;19.38;43.13;98809.75;4973664;28;47313;-58
2022/04/07 09:50:31;;;;;;;;;0.00;0.00;;;;;19.39;43.40;98795.66;4974784;28;45299;-60
2022/04/07 09:53:03;;;;;;;;;0.00;0.00;;;;;19.38;43.12;98794.81;4974097;28;45362;-61
2022/04/07 09:55:40;;;;;;;;;0.00;0.00;;;;;19.39;43.36;98796.50;4975309;28;45166;-59
2022/04/07 09:58:07;;;;;;;;;0.00;0.00;;;;;19.38;43.07;98791.38;4974709;28;46348;-59
2022/04/07 10:00:33;;;;;;;;;0.00;0.00;;;;;19.39;43.57;98793.84;4974658;28;45792;-58
2022/04/07 10:03:00;;;;;;;;;0.00;0.00;;;;;19.40;43.28;98802.59;4989856;28;45446;-61
2022/04/07 10:05:26;;;;;;;;;0.00;0.00;;;;;19.40;43.47;98810.47;4975198;28;45269;-61
2022/04/07 10:07:51;;;;;;;;;1.00;0.00;;;;;19.39;43.20;98799.09;4974561;28;46366;-58
2022/04/07 10:10:18;;;;;;;;;0.00;0.00;;;;;19.40;43.75;98781.56;4974410;28;45343;-58
2022/04/07 10:12:47;;;;;;;;;0.00;0.00;;;;;19.40;43.40;98795.53;4973386;28;45285;-60
2022/04/07 10:15:14;;;;;;;;;0.00;0.00;;;;;19.40;43.81;98800.78;4974958;28;45422;-62
2022/04/07 10:17:40;;;;;;;;;1.00;0.25;;;;;19.40;43.67;98827.06;4974396;28;45578;-59
2022/04/07 10:20:09;;;;;;;;;0.00;0.00;;;;;19.40;43.50;98869.09;4974596;28;45268;-58
2022/04/07 10:22:52;;;;;;;;;0.00;0.00;;;;;19.39;44.00;98883.16;4973537;28;45261;-59
2022/04/07 10:25:18;;;;;;;;;0.75;0.00;;;;;19.40;43.79;98878.78;4975003;28;45228;-60
2022/04/07 10:27:57;;;;;;;;;0.00;0.00;;;;;19.40;43.93;98868.25;4974361;28;46137;-60
2022/04/07 10:30:23;;;;;;;;;1.00;1.00;;;;;19.39;43.89;98880.56;4973845;28;45421;-61
2022/04/07 10:32:52;;;;;;;;;0.00;0.00;;;;;19.42;43.92;98903.94;4974378;28;45332;-62
2022/04/07 10:35:34;;;;;;;;;0.00;0.00;;;;;19.42;44.19;98898.69;4973277;28;45629;-61
2022/04/07 10:38:02;;;;;;;;;1.75;0.25;;;;;19.42;43.83;98889.97;4972697;28;46350;-60
2022/04/07 10:40:48;;;;;;;;;0.00;0.00;;;;;19.43;44.29;98905.63;4974274;28;45209;-59
2022/04/07 10:43:14;;;;;;;;;0.00;0.00;;;;;19.43;44.23;98916.13;4974455;28;45198;-60
2022/04/07 10:45:41;;;;;;;;;2.00;1.00;;;;;19.42;44.07;98914.47;4974305;28;45484;-61
2022/04/07 10:48:25;;;;;;;;;1.00;0.00;;;;;19.44;44.05;98917.81;4973742;28;46210;-61
2022/04/07 10:50:52;;;;;;;;;1.00;1.00;;;;;19.45;44.45;98927.34;4973904;28;45822;-57
2022/04/07 10:53:21;;;;;;;;;0.00;0.00;;;;;19.45;44.38;98927.34;4974233;28;45384;-60
2022/04/07 10:56:08;;;;;;;;;1.00;1.00;;;;;19.45;44.54;98924.72;4974264;28;45245;-61
2022/04/07 10:58:48;;;;;;;;;0.75;0.00;;;;;19.44;44.12;98923.06;4973513;28;46380;-62
2022/04/07 11:01:15;;;;;;;;;1.50;0.25;;;;;19.46;44.39;98936.06;4973858;28;45806;-62
2022/04/07 11:03:42;;;;;;;;;1.25;1.00;;;;;19.47;44.15;98928.03;4972487;28;45324;-62
2022/04/07 11:06:10;;;;;;;;;1.00;0.00;;;;;19.47;44.49;98938.53;4974066;28;45394;-62
2022/04/07 11:08:36;;;;;;;;;1.00;1.00;;;;;19.49;44.67;98950.72;4988647;28;47442;-62
2022/04/07 11:11:01;;;;;;;;;0.00;0.00;;;;;19.50;43.95;98952.41;4973568;28;45395;-62
2022/04/07 11:13:50;;;;;;;;;0.00;0.00;;;;;19.49;44.47;98940.22;4974311;28;45311;-60
2022/04/07 11:16:30;;;;;;;;;2.00;0.00;;;;;19.52;44.28;98945.22;4974017;28;45286;-62
2022/04/07 11:18:58;;;;;;;;;1.00;1.00;;;;;19.52;44.09;98945.22;4973416;28;46228;-61
2022/04/07 11:21:25;;;;;;;;;1.00;1.00;;;;;19.52;44.02;98963.63;4973595;28;45409;-61
2022/04/07 11:23:52;;;;;;;;;1.75;1.00;;;;;19.52;44.18;98963.63;4973669;28;45344;-60
2022/04/07 11:26:27;;;;;;;;;1.00;1.00;;;;;19.53;44.40;98967.94;4973815;28;45628;-60
2022/04/07 11:29:05;;;;;;;;;1.00;1.00;;;;;19.54;43.88;98974.84;4973390;28;46375;-60
2022/04/07 11:31:46;;;;;;;;;0.50;0.50;;;;;19.54;44.10;98977.47;4972284;28;45853;-61
2022/04/07 11:34:37;;;;;;;;;0.50;0.50;;;;;19.54;43.66;98990.63;4972166;28;45357;-60